createdAt,value
2019-04-16T00:00:58.379Z,3.828125
2019-04-16T00:02:07.883Z,3.838196
2019-04-16T00:03:20.210Z,3.777771
2019-04-16T00:04:27.845Z,3.777771
2019-04-16T00:05:37.362Z,3.7677
2019-04-16T00:06:46.862Z,3.7677
2019-04-16T00:07:56.367Z,3.757629
2019-04-16T00:09:06.907Z,3.757629
2019-04-16T00:10:16.381Z,3.797913
2019-04-16T00:11:25.891Z,3.807983
2019-04-16T00:12:35.401Z,3.868408
2019-04-16T00:13:44.932Z,3.878479
2019-04-16T00:14:54.430Z,3.938904
2019-04-16T00:16:03.956Z,3.979187
2019-04-16T00:17:15.796Z,4.009399
2019-04-16T00:18:23.947Z,4.039612
2019-04-16T00:19:34.698Z,4.01947
2019-04-16T00:20:42.973Z,4.01947
2019-04-16T00:21:52.478Z,4.039612
2019-04-16T00:23:01.985Z,4.039612
2019-04-16T00:24:11.493Z,4.049683
2019-04-16T00:25:20.996Z,4.079895
2019-04-16T00:26:30.504Z,4.100037
2019-04-16T00:27:40.021Z,4.100037
2019-04-16T00:28:49.534Z,4.130249
2019-04-16T00:30:03.824Z,4.100037
2019-04-16T00:31:09.537Z,4.100037
2019-04-16T00:32:19.027Z,4.079895
2019-04-16T00:33:28.522Z,4.039612
2019-04-16T00:34:39.028Z,3.948975
2019-04-16T00:35:48.528Z,3.828125
2019-04-16T00:36:58.031Z,3.697205
2019-04-16T00:38:07.731Z,3.596497
2019-04-16T00:39:17.058Z,3.505859
2019-04-16T00:40:27.293Z,3.465576
2019-04-16T00:41:36.073Z,3.405151
2019-04-16T00:42:45.580Z,3.415222
2019-04-16T00:43:55.088Z,3.395081
2019-04-16T00:45:04.604Z,3.395081
2019-04-16T00:46:14.122Z,3.395081
2019-04-16T00:47:23.630Z,3.374939
2019-04-16T00:48:33.130Z,3.374939
2019-04-16T00:49:42.638Z,3.374939
2019-04-16T00:50:52.156Z,3.395081
2019-04-16T00:52:05.343Z,3.405151
2019-04-16T00:53:11.166Z,3.374939
2019-04-16T00:54:20.679Z,3.364868
2019-04-16T00:55:30.196Z,3.344727
2019-04-16T00:56:39.731Z,3.374939
2019-04-16T00:57:49.306Z,3.405151
2019-04-16T00:58:58.726Z,3.445435
2019-04-16T01:00:08.230Z,3.505859
2019-04-16T01:01:17.758Z,3.576355
2019-04-16T01:02:27.282Z,3.616638
2019-04-16T01:03:36.806Z,3.596497
2019-04-16T01:04:46.314Z,3.576355
2019-04-16T01:05:55.838Z,3.556213
2019-04-16T01:07:06.333Z,3.546143
2019-04-16T01:08:15.838Z,3.505859
2019-04-16T01:09:25.359Z,3.445435
2019-04-16T01:10:34.853Z,3.344727
2019-04-16T01:11:45.999Z,3.254089
2019-04-16T01:12:53.924Z,3.183594
2019-04-16T01:14:03.433Z,3.082886
2019-04-16T01:15:12.946Z,3.042603
2019-04-16T01:16:22.485Z,2.972107
2019-04-16T01:17:33.335Z,2.901611
2019-04-16T01:18:42.466Z,2.851257
2019-04-16T01:19:51.969Z,2.821045
2019-04-16T01:21:01.503Z,2.770691
2019-04-16T01:22:15.665Z,2.770691
2019-04-16T01:23:21.487Z,2.720337
2019-04-16T01:24:30.997Z,2.690125
2019-04-16T01:25:40.502Z,2.690125
2019-04-16T01:26:50.054Z,2.680054
2019-04-16T01:28:00.998Z,2.720337
2019-04-16T01:29:09.056Z,2.740479
2019-04-16T01:30:18.552Z,2.750549
2019-04-16T01:31:28.094Z,2.800903
2019-04-16T01:32:42.375Z,2.821045
2019-04-16T01:33:48.079Z,2.800903
2019-04-16T01:34:57.746Z,2.800903
2019-04-16T01:36:07.104Z,2.831116
2019-04-16T01:37:16.607Z,2.831116
2019-04-16T01:38:27.903Z,2.821045
2019-04-16T01:39:36.601Z,2.871399
2019-04-16T01:40:47.268Z,2.871399
2019-04-16T01:41:56.648Z,2.861328
2019-04-16T01:43:06.169Z,2.851257
2019-04-16T01:44:15.687Z,2.821045
2019-04-16T01:45:29.548Z,2.821045
2019-04-16T01:46:35.701Z,2.800903
2019-04-16T01:47:45.217Z,2.770691
2019-04-16T01:48:54.721Z,2.790833
2019-04-16T01:50:04.223Z,2.790833
2019-04-16T01:51:15.346Z,2.770691
2019-04-16T01:52:24.254Z,2.750549
2019-04-16T01:53:33.763Z,2.750549
2019-04-16T01:54:43.271Z,2.770691
2019-04-16T01:55:56.663Z,2.800903
2019-04-16T01:57:03.276Z,2.821045
2019-04-16T01:58:12.783Z,2.831116
2019-04-16T01:59:22.292Z,2.821045
2019-04-16T02:00:31.835Z,2.800903
2019-04-16T02:01:43.349Z,2.790833
2019-04-16T02:02:50.843Z,2.750549
2019-04-16T02:04:00.370Z,2.740479
2019-04-16T02:05:09.881Z,2.720337
2019-04-16T02:06:20.377Z,2.710266
2019-04-16T02:07:29.930Z,2.680054
2019-04-16T02:08:39.440Z,2.639771
2019-04-16T02:09:48.948Z,2.619629
2019-04-16T02:10:58.449Z,2.599487
2019-04-16T02:12:12.728Z,2.559204
2019-04-16T02:13:18.439Z,2.50885
2019-04-16T02:14:27.945Z,2.498779
2019-04-16T02:15:37.457Z,2.458496
2019-04-16T02:16:47.009Z,2.458496
2019-04-16T02:17:58.711Z,2.458496
2019-04-16T02:19:06.997Z,2.498779
2019-04-16T02:20:16.504Z,2.559204
2019-04-16T02:21:26.013Z,2.599487
2019-04-16T02:22:35.550Z,2.569275
2019-04-16T02:23:48.020Z,2.569275
2019-04-16T02:24:55.543Z,2.539062
2019-04-16T02:26:05.055Z,2.50885
2019-04-16T02:27:14.574Z,2.468567
2019-04-16T02:28:27.848Z,2.438354
2019-04-16T02:29:34.568Z,2.37793
2019-04-16T02:30:44.082Z,2.357788
2019-04-16T02:31:53.610Z,2.327576
2019-04-16T02:33:03.122Z,2.277222
2019-04-16T02:34:12.621Z,2.236938
2019-04-16T02:35:22.125Z,2.216797
2019-04-16T02:36:31.643Z,2.216797
2019-04-16T02:37:41.170Z,2.176514
2019-04-16T02:38:53.069Z,2.146301
2019-04-16T02:40:00.560Z,2.13623
2019-04-16T02:41:09.874Z,2.12616
2019-04-16T02:42:19.217Z,2.13623
2019-04-16T02:43:29.715Z,2.13623
2019-04-16T02:44:40.187Z,2.106018
2019-04-16T02:45:56.321Z,2.075806
2019-04-16T02:47:04.516Z,1.995239
2019-04-16T02:48:14.478Z,1.954956
2019-04-16T02:49:22.900Z,1.944885
2019-04-16T02:50:31.861Z,1.894531
2019-04-16T02:51:41.140Z,1.87439
2019-04-16T02:52:50.983Z,1.844177
2019-04-16T02:53:58.548Z,1.803894
2019-04-16T02:55:08.929Z,1.803894
2019-04-16T02:56:18.703Z,1.773682
2019-04-16T02:57:27.545Z,1.733398
2019-04-16T02:58:35.311Z,1.703186
2019-04-16T02:59:47.191Z,1.683044
2019-04-16T03:00:54.106Z,1.63269
2019-04-16T03:02:03.609Z,1.602478
2019-04-16T03:03:13.126Z,1.602478
2019-04-16T03:04:26.641Z,1.582336
2019-04-16T03:05:32.130Z,1.552124
2019-04-16T03:06:41.652Z,1.531982
2019-04-16T03:07:51.152Z,1.552124
2019-04-16T03:09:01.821Z,1.562195
2019-04-16T03:10:13.027Z,1.582336
2019-04-16T03:11:20.656Z,1.562195
2019-04-16T03:12:30.158Z,1.562195
2019-04-16T03:13:39.676Z,1.562195
2019-04-16T03:14:49.184Z,1.531982
2019-04-16T03:16:02.548Z,1.531982
2019-04-16T03:17:10.180Z,1.531982
2019-04-16T03:18:18.703Z,1.521912
2019-04-16T03:19:28.225Z,1.50177
2019-04-16T03:20:38.720Z,1.441345
2019-04-16T03:21:48.261Z,1.401062
2019-04-16T03:22:58.748Z,1.350708
2019-04-16T03:24:09.515Z,1.340637
2019-04-16T03:25:17.756Z,1.350708
2019-04-16T03:26:27.286Z,1.38092
2019-04-16T03:27:36.869Z,1.401062
2019-04-16T03:28:47.368Z,1.451416
2019-04-16T03:30:02.812Z,1.491699
2019-04-16T03:31:09.442Z,1.50177
2019-04-16T03:32:17.853Z,1.531982
2019-04-16T03:33:28.354Z,1.562195
2019-04-16T03:34:37.878Z,1.582336
2019-04-16T03:35:47.391Z,1.592407
2019-04-16T03:36:58.506Z,1.592407
2019-04-16T03:38:07.605Z,1.592407
2019-04-16T03:39:16.899Z,1.592407
2019-04-16T03:40:26.424Z,1.582336
2019-04-16T03:41:35.942Z,1.552124
2019-04-16T03:42:45.458Z,1.531982
2019-04-16T03:43:55.956Z,1.521912
2019-04-16T03:45:08.896Z,1.491699
2019-04-16T03:46:14.964Z,1.481628
2019-04-16T03:47:24.468Z,1.441345
2019-04-16T03:48:33.970Z,1.401062
2019-04-16T03:49:43.493Z,1.37085
2019-04-16T03:50:53.011Z,1.320496
2019-04-16T03:52:04.569Z,1.260071
2019-04-16T03:53:16.260Z,1.239929
2019-04-16T03:54:23.129Z,1.219788
2019-04-16T03:55:31.992Z,1.199646
2019-04-16T03:56:41.559Z,1.169434
2019-04-16T03:57:51.084Z,1.139221
2019-04-16T03:59:00.594Z,1.12915
2019-04-16T04:00:12.850Z,1.11908
2019-04-16T04:01:20.579Z,1.159363
2019-04-16T04:02:30.115Z,1.199646
2019-04-16T04:03:39.622Z,1.189575
2019-04-16T04:04:57.540Z,1.169434
2019-04-16T04:06:07.921Z,1.159363
2019-04-16T04:07:16.202Z,1.11908
2019-04-16T04:08:25.724Z,1.098938
2019-04-16T04:09:35.239Z,1.058655
2019-04-16T04:10:44.784Z,1.018372
2019-04-16T04:11:54.339Z,0.988159
2019-04-16T04:13:04.944Z,0.978088
2019-04-16T04:14:14.399Z,0.978088
2019-04-16T04:15:26.278Z,0.988159
2019-04-16T04:16:34.434Z,0.988159
2019-04-16T04:17:43.078Z,1.008301
2019-04-16T04:18:52.601Z,1.018372
2019-04-16T04:20:02.137Z,1.078796
2019-04-16T04:21:11.681Z,1.098938
2019-04-16T04:22:22.688Z,1.11908
2019-04-16T04:23:31.728Z,1.098938
2019-04-16T04:24:41.260Z,1.11908
2019-04-16T04:25:50.806Z,1.139221
2019-04-16T04:27:00.352Z,1.12915
2019-04-16T04:28:10.874Z,1.11908
2019-04-16T04:29:24.650Z,1.12915
2019-04-16T04:30:30.898Z,1.139221
2019-04-16T04:31:40.454Z,1.12915
2019-04-16T04:32:50.020Z,1.12915
2019-04-16T04:33:59.554Z,1.139221
2019-04-16T04:35:10.070Z,1.139221
2019-04-16T04:36:22.933Z,1.12915
2019-04-16T04:37:31.185Z,1.078796
2019-04-16T04:38:39.707Z,1.048584
2019-04-16T04:39:49.255Z,1.038513
2019-04-16T04:40:59.812Z,1.038513
2019-04-16T04:42:08.305Z,1.018372
2019-04-16T04:43:18.844Z,1.038513
2019-04-16T04:44:29.356Z,1.058655
2019-04-16T04:45:40.705Z,1.098938
2019-04-16T04:46:48.391Z,1.139221
2019-04-16T04:47:57.925Z,1.159363
2019-04-16T04:49:07.456Z,1.199646
2019-04-16T04:50:16.973Z,1.239929
2019-04-16T04:51:26.514Z,1.300354
2019-04-16T04:52:37.057Z,1.37085
2019-04-16T04:53:50.211Z,1.421204
2019-04-16T04:54:57.062Z,1.491699
2019-04-16T04:56:06.589Z,1.521912
2019-04-16T04:57:16.147Z,1.531982
2019-04-16T04:58:25.678Z,1.552124
2019-04-16T04:59:36.691Z,1.552124
2019-04-16T05:00:44.718Z,1.521912
2019-04-16T05:01:54.235Z,1.491699
2019-04-16T05:03:03.780Z,1.521912
2019-04-16T05:04:18.836Z,1.521912
2019-04-16T05:05:25.533Z,1.552124
2019-04-16T05:06:33.364Z,1.562195
2019-04-16T05:07:42.907Z,1.562195
2019-04-16T05:08:52.434Z,1.552124
2019-04-16T05:10:04.528Z,1.552124
2019-04-16T05:11:12.482Z,1.562195
2019-04-16T05:12:21.561Z,1.582336
2019-04-16T05:13:30.484Z,1.582336
2019-04-16T05:14:40.017Z,1.582336
2019-04-16T05:15:49.523Z,1.662903
2019-04-16T05:17:00.031Z,1.763611
2019-04-16T05:18:10.571Z,1.844177
2019-04-16T05:19:19.096Z,1.88446
2019-04-16T05:20:29.898Z,1.88446
2019-04-16T05:21:38.183Z,1.894531
2019-04-16T05:22:50.470Z,1.894531
2019-04-16T05:23:59.261Z,1.894531
2019-04-16T05:25:08.785Z,1.894531
2019-04-16T05:26:18.538Z,1.944885
2019-04-16T05:27:29.397Z,1.965027
2019-04-16T05:28:44.258Z,2.065735
2019-04-16T05:29:49.646Z,2.12616
2019-04-16T05:30:58.432Z,2.176514
2019-04-16T05:32:07.936Z,2.236938
2019-04-16T05:33:17.636Z,2.347717
2019-04-16T05:34:27.013Z,2.50885
2019-04-16T05:35:38.522Z,2.750549
2019-04-16T05:36:48.081Z,2.901611
2019-04-16T05:37:56.584Z,3.042603
2019-04-16T05:39:06.172Z,3.113098
2019-04-16T05:40:15.696Z,3.183594
2019-04-16T05:41:25.516Z,3.193665
2019-04-16T05:42:34.729Z,3.213806
2019-04-16T05:43:44.274Z,3.223877
2019-04-16T05:44:53.816Z,3.284302
2019-04-16T05:46:05.422Z,3.344727
2019-04-16T05:47:16.706Z,3.435364
2019-04-16T05:48:22.816Z,3.556213
2019-04-16T05:49:31.905Z,3.626709
2019-04-16T05:50:41.432Z,3.687134
2019-04-16T05:51:50.962Z,3.757629
2019-04-16T05:53:01.471Z,3.797913
2019-04-16T05:54:13.238Z,3.878479
2019-04-16T05:55:21.529Z,3.959045
2019-04-16T05:56:31.044Z,4.059753
2019-04-16T05:57:40.592Z,4.160461
2019-04-16T05:58:50.127Z,4.230957
2019-04-16T06:00:02.830Z,4.301453
2019-04-16T06:01:13.590Z,4.351807
2019-04-16T06:02:20.664Z,4.351807
2019-04-16T06:03:30.216Z,4.371948
2019-04-16T06:04:39.743Z,4.402161
2019-04-16T06:05:49.279Z,4.442444
2019-04-16T06:07:02.524Z,4.533081
2019-04-16T06:08:10.199Z,4.593506
2019-04-16T06:09:18.998Z,4.623718
2019-04-16T06:10:28.358Z,4.633789
2019-04-16T06:11:37.887Z,4.704285
2019-04-16T06:12:47.444Z,4.744568
2019-04-16T06:13:56.971Z,4.77478
2019-04-16T06:15:06.497Z,4.815063
2019-04-16T06:16:16.004Z,4.925842
2019-04-16T06:17:31.704Z,4.996338
2019-04-16T06:18:37.881Z,5.076904
2019-04-16T06:19:46.718Z,5.097046
2019-04-16T06:20:55.153Z,5.137329
2019-04-16T06:22:04.662Z,5.167542
2019-04-16T06:23:14.373Z,5.227966
2019-04-16T06:24:23.739Z,5.288391
2019-04-16T06:25:34.299Z,5.328674
2019-04-16T06:26:44.376Z,5.348816
2019-04-16T06:27:53.390Z,5.389099
2019-04-16T06:29:03.019Z,5.479736
2019-04-16T06:30:12.549Z,5.540161
2019-04-16T06:31:22.105Z,5.640869
2019-04-16T06:32:31.648Z,5.661011
2019-04-16T06:33:41.191Z,5.681152
2019-04-16T06:34:50.735Z,5.721436
2019-04-16T06:36:00.277Z,5.822144
2019-04-16T06:37:09.801Z,5.90271
2019-04-16T06:38:20.599Z,6.013489
2019-04-16T06:39:30.653Z,6.094055
2019-04-16T06:40:39.601Z,6.174622
2019-04-16T06:41:49.129Z,6.255188
2019-04-16T06:42:58.666Z,6.376038
2019-04-16T06:44:08.191Z,6.486816
2019-04-16T06:45:17.719Z,6.617737
2019-04-16T06:46:27.299Z,6.738586
2019-04-16T06:47:41.721Z,6.809082
2019-04-16T06:48:47.304Z,6.879578
2019-04-16T06:49:56.836Z,6.970215
2019-04-16T06:51:06.396Z,7.111206
2019-04-16T06:52:17.316Z,7.201843
2019-04-16T06:53:25.549Z,7.312622
2019-04-16T06:54:35.068Z,7.503967
2019-04-16T06:55:45.610Z,7.715454
2019-04-16T06:56:55.125Z,7.846375
2019-04-16T06:58:04.675Z,7.947083
2019-04-16T06:59:17.228Z,8.098145
2019-04-16T07:00:25.708Z,8.198853
2019-04-16T07:01:36.959Z,8.370056
2019-04-16T07:03:01.233Z,8.581543
2019-04-16T07:03:59.418Z,8.742676
2019-04-16T07:05:06.727Z,8.92395
2019-04-16T07:06:16.233Z,9.125366
2019-04-16T07:07:37.817Z,9.316711
2019-04-16T07:08:38.024Z,9.54834
2019-04-16T07:09:46.782Z,9.739685
2019-04-16T07:10:57.310Z,9.941101
2019-04-16T07:12:06.856Z,10.122375
2019-04-16T07:13:16.389Z,10.041809
2019-04-16T07:14:25.971Z,10.072021
2019-04-16T07:15:36.445Z,10.202942
2019-04-16T07:16:45.984Z,10.374146
2019-04-16T07:17:55.533Z,10.525208
2019-04-16T07:19:10.102Z,10.68634
2019-04-16T07:20:16.524Z,10.746765
2019-04-16T07:21:26.066Z,10.93811
2019-04-16T07:22:35.584Z,10.968323
2019-04-16T07:23:46.183Z,10.917969
2019-04-16T07:24:55.661Z,11.048889
2019-04-16T07:26:06.172Z,11.17981
2019-04-16T07:27:19.927Z,11.361084
2019-04-16T07:28:26.807Z,11.622925
2019-04-16T07:29:35.737Z,11.914978
2019-04-16T07:30:46.170Z,11.965332
2019-04-16T07:31:56.050Z,11.834412
2019-04-16T07:33:05.224Z,11.874695
2019-04-16T07:34:14.742Z,12.035828
2019-04-16T07:35:26.989Z,12.19696
2019-04-16T07:36:33.755Z,12.287598
2019-04-16T07:37:43.294Z,12.388306
2019-04-16T07:38:52.815Z,12.428589
2019-04-16T07:40:02.340Z,12.468872
2019-04-16T07:41:12.350Z,12.579651
2019-04-16T07:42:22.370Z,12.680359
2019-04-16T07:43:31.803Z,12.831421
2019-04-16T07:44:40.346Z,13.083191
2019-04-16T07:45:49.882Z,13.304749
2019-04-16T07:46:59.442Z,13.365173
2019-04-16T07:48:08.943Z,13.486023
2019-04-16T07:49:18.462Z,13.496094
2019-04-16T07:50:29.461Z,13.415527
2019-04-16T07:51:37.455Z,13.385315
2019-04-16T07:52:47.016Z,13.415527
2019-04-16T07:53:56.531Z,13.596802
2019-04-16T07:55:06.148Z,13.788147
2019-04-16T07:56:15.562Z,13.959351
2019-04-16T07:57:25.100Z,14.110413
2019-04-16T07:58:34.627Z,14.221191
2019-04-16T07:59:44.165Z,14.291687
2019-04-16T08:00:53.702Z,14.372253
2019-04-16T08:02:03.234Z,14.533386
2019-04-16T08:03:12.749Z,14.785156
2019-04-16T08:04:28.599Z,14.875793
2019-04-16T08:05:33.743Z,14.775085
2019-04-16T08:06:45.943Z,14.724731
2019-04-16T08:07:53.709Z,14.603882
2019-04-16T08:09:02.341Z,14.472961
2019-04-16T08:10:11.855Z,14.362183
2019-04-16T08:11:23.011Z,14.513245
2019-04-16T08:12:31.161Z,14.734802
2019-04-16T08:13:41.382Z,14.966431
2019-04-16T08:14:50.891Z,15.107422
2019-04-16T08:16:01.390Z,15.349121
2019-04-16T08:17:10.917Z,15.369263
2019-04-16T08:18:20.428Z,15.4599
2019-04-16T08:19:36.463Z,15.550537
2019-04-16T08:20:39.465Z,15.58075
2019-04-16T08:21:49.989Z,15.671387
2019-04-16T08:22:59.703Z,15.84259
2019-04-16T08:24:09.217Z,15.923157
2019-04-16T08:25:18.592Z,15.772095
2019-04-16T08:26:28.110Z,15.4599
2019-04-16T08:27:37.660Z,15.167847
2019-04-16T08:28:48.266Z,15.177917
2019-04-16T08:30:02.086Z,15.429688
2019-04-16T08:31:10.449Z,15.802307
2019-04-16T08:32:17.023Z,16.023865
2019-04-16T08:33:28.503Z,16.285706
2019-04-16T08:34:36.728Z,16.406555
2019-04-16T08:35:46.242Z,16.658325
2019-04-16T08:36:55.767Z,16.889954
2019-04-16T08:38:05.532Z,16.789246
2019-04-16T08:39:14.813Z,16.789246
2019-04-16T08:40:24.346Z,16.748962
2019-04-16T08:41:33.884Z,16.738892
2019-04-16T08:42:44.531Z,16.507263
2019-04-16T08:43:53.923Z,16.487122
2019-04-16T08:45:07.170Z,16.507263
2019-04-16T08:46:13.941Z,16.567688
2019-04-16T08:47:23.470Z,16.507263
2019-04-16T08:48:33.001Z,16.527405
2019-04-16T08:49:42.543Z,16.809387
2019-04-16T08:50:57.794Z,17.041016
2019-04-16T08:52:03.551Z,17.111511
2019-04-16T08:53:14.308Z,17.151794
2019-04-16T08:54:22.595Z,17.302856
2019-04-16T08:55:32.121Z,17.393494
2019-04-16T08:56:43.269Z,17.59491
2019-04-16T08:57:51.170Z,17.715759
2019-04-16T08:59:01.416Z,17.675476
2019-04-16T09:00:14.055Z,17.60498
2019-04-16T09:01:23.491Z,17.484131
2019-04-16T09:02:30.212Z,17.494202
2019-04-16T09:03:39.742Z,17.715759
2019-04-16T09:04:49.271Z,17.937317
2019-04-16T09:05:58.857Z,18.158875
2019-04-16T09:07:11.883Z,18.370361
2019-04-16T09:08:21.746Z,18.380432
2019-04-16T09:09:28.351Z,18.309937
2019-04-16T09:10:37.917Z,18.179016
2019-04-16T09:11:48.651Z,18.279724
2019-04-16T09:13:03.647Z,18.380432
2019-04-16T09:14:06.550Z,18.591919
2019-04-16T09:15:17.063Z,18.773193
2019-04-16T09:16:27.582Z,18.863831
2019-04-16T09:17:37.093Z,18.783264
2019-04-16T09:18:46.657Z,18.753052
2019-04-16T09:19:56.451Z,18.712769
2019-04-16T09:21:10.234Z,18.652344
2019-04-16T09:22:17.103Z,18.370361
2019-04-16T09:23:26.995Z,18.128662
2019-04-16T09:24:40.090Z,17.84668
2019-04-16T09:25:45.606Z,17.937317
2019-04-16T09:26:55.633Z,18.048096
2019-04-16T09:28:07.562Z,18.189087
2019-04-16T09:29:14.727Z,18.279724
2019-04-16T09:30:24.254Z,18.440857
2019-04-16T09:31:33.770Z,18.551636
2019-04-16T09:32:43.296Z,18.662415
2019-04-16T09:33:52.815Z,18.742981
2019-04-16T09:35:09.468Z,18.954468
2019-04-16T09:36:13.775Z,19.186096
2019-04-16T09:37:25.386Z,19.306946
2019-04-16T09:38:32.795Z,19.367371
2019-04-16T09:39:43.405Z,19.337158
2019-04-16T09:40:52.930Z,19.296875
2019-04-16T09:42:02.449Z,19.558716
2019-04-16T09:43:16.897Z,19.770203
2019-04-16T09:44:21.478Z,20.072327
2019-04-16T09:45:33.765Z,20.283813
2019-04-16T09:46:59.361Z,20.465088
2019-04-16T09:47:52.006Z,20.465088
2019-04-16T09:49:04.660Z,20.183105
2019-04-16T09:50:12.107Z,19.891052
2019-04-16T09:51:21.568Z,19.850769
2019-04-16T09:52:31.098Z,19.891052
2019-04-16T09:53:40.993Z,19.891052
2019-04-16T09:54:50.157Z,19.850769
2019-04-16T09:55:59.680Z,19.921265
2019-04-16T09:57:09.203Z,20.001831
2019-04-16T09:58:21.521Z,20.223389
2019-04-16T09:59:28.251Z,20.374451
2019-04-16T10:00:37.767Z,20.434875
2019-04-16T10:01:48.275Z,20.293884
2019-04-16T10:02:57.783Z,20.223389
2019-04-16T10:04:07.381Z,20.374451
2019-04-16T10:05:16.974Z,20.61615
2019-04-16T10:07:44.581Z,20.626221
2019-04-16T10:08:56.515Z,20.414734
2019-04-16T10:10:03.666Z,19.951477
2019-04-16T10:11:13.442Z,19.820557
2019-04-16T10:12:22.724Z,19.770203
2019-04-16T10:13:35.821Z,19.790344
2019-04-16T10:14:41.680Z,20.001831
2019-04-16T10:15:51.194Z,20.263672
2019-04-16T10:17:00.700Z,20.465088
2019-04-16T10:18:10.227Z,20.626221
2019-04-16T10:19:21.667Z,20.414734
2019-04-16T10:20:29.252Z,20.596008
2019-04-16T10:21:39.747Z,20.817566
2019-04-16T10:22:50.257Z,20.918274
2019-04-16T10:23:59.769Z,21.109619
2019-04-16T10:25:09.301Z,21.290894
2019-04-16T10:26:18.812Z,20.837708
2019-04-16T10:27:31.174Z,20.74707
2019-04-16T10:28:37.898Z,20.414734
2019-04-16T10:29:47.348Z,20.283813
2019-04-16T10:30:56.909Z,20.394592
2019-04-16T10:32:06.404Z,20.253601
2019-04-16T10:33:17.040Z,20.444946
2019-04-16T10:34:26.457Z,20.767212
2019-04-16T10:35:36.964Z,20.98877
2019-04-16T10:36:46.472Z,21.069336
2019-04-16T10:37:55.963Z,21.149902
2019-04-16T10:39:05.477Z,21.049194
2019-04-16T10:40:15.056Z,20.99884
2019-04-16T10:41:24.518Z,20.918274
2019-04-16T10:42:34.014Z,20.948486
2019-04-16T10:43:44.595Z,20.837708
2019-04-16T10:44:53.043Z,20.696716
2019-04-16T10:46:02.553Z,20.555725
2019-04-16T10:47:12.519Z,20.696716
2019-04-16T10:48:21.533Z,20.797424
2019-04-16T10:49:31.062Z,20.807495
2019-04-16T10:50:40.566Z,20.847778
2019-04-16T10:51:50.079Z,20.847778
2019-04-16T10:52:59.586Z,20.898132
2019-04-16T10:54:09.091Z,20.99884
2019-04-16T10:55:18.867Z,21.300964
2019-04-16T10:56:28.147Z,21.572876
2019-04-16T10:57:38.450Z,21.693726
2019-04-16T10:58:47.135Z,21.50238
2019-04-16T10:59:56.652Z,21.482239
2019-04-16T11:01:06.164Z,21.542664
2019-04-16T11:02:15.703Z,21.834717
2019-04-16T11:03:28.501Z,22.12677
2019-04-16T11:04:35.971Z,22.146912
2019-04-16T11:05:45.483Z,22.12677
2019-04-16T11:06:55.993Z,22.146912
2019-04-16T11:08:07.335Z,22.388611
2019-04-16T11:09:15.091Z,22.569885
2019-04-16T11:10:24.614Z,22.781372
2019-04-16T11:11:34.121Z,22.962646
2019-04-16T11:12:43.663Z,22.811584
2019-04-16T11:13:59.949Z,22.690735
2019-04-16T11:15:02.773Z,22.932434
2019-04-16T11:16:12.316Z,23.123779
2019-04-16T11:17:21.787Z,23.315125
2019-04-16T11:18:31.357Z,23.234558
2019-04-16T11:19:40.851Z,23.214417
2019-04-16T11:20:51.429Z,23.204346
2019-04-16T11:22:03.629Z,23.214417
2019-04-16T11:23:10.649Z,23.315125
2019-04-16T11:24:21.133Z,23.023071
2019-04-16T11:25:30.651Z,22.479248
2019-04-16T11:26:40.158Z,22.660522
2019-04-16T11:27:49.728Z,22.831726
2019-04-16T11:28:59.191Z,23.184204
2019-04-16T11:30:08.720Z,23.2547
2019-04-16T11:31:18.226Z,23.395691
2019-04-16T11:32:27.733Z,23.50647
2019-04-16T11:33:38.229Z,23.617249
2019-04-16T11:34:47.742Z,23.466187
2019-04-16T11:35:57.270Z,23.738098
2019-04-16T11:37:09.159Z,23.778381
2019-04-16T11:38:17.850Z,23.798523
2019-04-16T11:39:26.772Z,24.030151
2019-04-16T11:40:36.309Z,24.110718
2019-04-16T11:41:45.807Z,24.211426
2019-04-16T11:42:55.328Z,24.291992
2019-04-16T11:44:14.559Z,24.050293
2019-04-16T11:45:15.298Z,23.556824
2019-04-16T11:46:24.822Z,22.600098
2019-04-16T11:47:34.888Z,21.603088
2019-04-16T11:48:43.845Z,21.542664
2019-04-16T11:49:53.375Z,21.663513
2019-04-16T11:51:02.893Z,21.774292
2019-04-16T11:52:12.428Z,22.136841
2019-04-16T11:53:21.953Z,22.831726
2019-04-16T11:54:31.515Z,23.425903
2019-04-16T11:55:41.020Z,24.14093
2019-04-16T11:56:50.569Z,24.382629
2019-04-16T11:58:01.003Z,24.3927
2019-04-16T11:59:10.808Z,23.284912
2019-04-16T12:00:20.086Z,23.687744
2019-04-16T12:01:29.611Z,24.362488
2019-04-16T12:02:39.171Z,24.181213
2019-04-16T12:03:48.604Z,23.476257
2019-04-16T12:04:59.308Z,23.204346
2019-04-16T12:06:07.620Z,22.549744
2019-04-16T12:07:18.125Z,22.76123
2019-04-16T12:08:27.658Z,22.287903
2019-04-16T12:09:37.188Z,22.549744
2019-04-16T12:10:46.767Z,22.801514
2019-04-16T12:11:56.266Z,23.677673
2019-04-16T12:13:05.783Z,24.503479
2019-04-16T12:14:29.007Z,24.956665
2019-04-16T12:15:25.824Z,25.409851
2019-04-16T12:16:35.361Z,25.258789
2019-04-16T12:17:44.899Z,26.074524
2019-04-16T12:18:54.404Z,26.557922
2019-04-16T12:20:04.064Z,26.366577
2019-04-16T12:21:13.446Z,26.52771
2019-04-16T12:22:22.947Z,25.701904
2019-04-16T12:23:32.481Z,25.873108
2019-04-16T12:24:42.039Z,25.127869
2019-04-16T12:25:51.568Z,25.329285
2019-04-16T12:27:01.075Z,25.601196
2019-04-16T12:28:12.463Z,26.255798
2019-04-16T12:29:22.999Z,26.598206
2019-04-16T12:30:29.581Z,26.829834
2019-04-16T12:31:39.100Z,26.557922
2019-04-16T12:32:48.617Z,26.990967
2019-04-16T12:33:58.112Z,27.575073
2019-04-16T12:35:07.790Z,28.068542
2019-04-16T12:36:17.196Z,28.451233
2019-04-16T12:37:26.736Z,28.521729
2019-04-16T12:38:37.201Z,28.894348
2019-04-16T12:39:46.713Z,28.471375
2019-04-16T12:40:56.287Z,28.320312
2019-04-16T12:42:06.154Z,28.471375
2019-04-16T12:43:16.239Z,27.424011
2019-04-16T12:44:25.310Z,27.816772
2019-04-16T12:45:35.304Z,28.269958
2019-04-16T12:46:44.802Z,28.390808
2019-04-16T12:47:54.338Z,29.115906
2019-04-16T12:49:03.848Z,29.065552
2019-04-16T12:50:16.534Z,29.438171
2019-04-16T12:51:22.938Z,29.689941
2019-04-16T12:52:32.521Z,29.266968
2019-04-16T12:53:41.993Z,29.679871
2019-04-16T12:54:58.121Z,30.022278
2019-04-16T12:56:07.298Z,29.307251
2019-04-16T12:57:14.430Z,29.347534
2019-04-16T12:58:20.993Z,28.854065
2019-04-16T12:59:30.503Z,28.511658
2019-04-16T13:00:40.002Z,27.303162
2019-04-16T13:01:49.530Z,26.950684
2019-04-16T13:02:59.043Z,26.245728
2019-04-16T13:04:08.553Z,25.289001
2019-04-16T13:05:20.827Z,24.634399
2019-04-16T13:06:27.594Z,24.755249
2019-04-16T13:07:38.920Z,24.432983
2019-04-16T13:08:46.596Z,23.617249
2019-04-16T13:09:56.129Z,23.38562
2019-04-16T13:11:07.968Z,23.395691
2019-04-16T13:12:15.637Z,24.422913
2019-04-16T13:13:24.640Z,24.976807
2019-04-16T13:14:37.622Z,25.319214
2019-04-16T13:15:43.676Z,26.185303
2019-04-16T13:16:53.192Z,26.185303
2019-04-16T13:18:02.714Z,26.205444
2019-04-16T13:19:12.505Z,26.588135
2019-04-16T13:20:21.786Z,26.40686
2019-04-16T13:21:31.288Z,27.585144
2019-04-16T13:22:40.818Z,27.947693
2019-04-16T13:23:50.334Z,28.078613
2019-04-16T13:24:59.848Z,27.998047
2019-04-16T13:26:12.807Z,28.79364
2019-04-16T13:27:18.886Z,29.065552
2019-04-16T13:28:28.398Z,28.592224
2019-04-16T13:29:37.920Z,28.008118
2019-04-16T13:30:47.449Z,27.595215